Time;durP1;ratioP1;P1;durP2;ratioP2;P2;SDS_P1;SDS_P2;PMS_P1;PMS_P2;Temp;Humidity;BMP_temperature;BMP_pressure;BME280_temperature;BME280_humidity;BME280_pressure;Samples;Min_cycle;Max_cycle;Signal;HPM_P1;HPM_P2
2022/11/18 00:01:11;;;;;;;;;1.00;0.50;;;;;11.24;69.76;99101.91;5015765;28;46352;-75
2022/11/18 00:03:37;;;;;;;;;0.25;0.25;;;;;11.25;69.78;99107.03;5016001;28;46610;-75
2022/11/18 00:06:03;;;;;;;;;0.50;0.50;;;;;11.23;69.88;99106.34;5015841;28;45615;-75
2022/11/18 00:08:37;;;;;;;;;0.00;0.00;;;;;11.21;69.86;99104.84;5016133;28;45801;-74
2022/11/18 00:14:26;;;;;;;;;1.00;0.00;;;;;11.24;69.83;99115.03;5015386;28;45976;-74
2022/11/18 00:16:58;;;;;;;;;1.75;0.00;;;;;11.21;69.93;99131.88;5015857;28;45725;-74
2022/11/18 00:19:32;;;;;;;;;2.25;0.75;;;;;11.22;69.86;99143.19;5015543;28;45449;-75
2022/11/18 00:22:00;;;;;;;;;1.00;1.00;;;;;11.21;69.93;99141.56;5015721;28;46645;-75
2022/11/18 00:24:27;;;;;;;;;0.00;0.00;;;;;11.21;70.03;99152.03;5015962;28;46474;-75
2022/11/18 00:27:04;;;;;;;;;0.75;0.00;;;;;11.20;69.99;99153.00;5015485;28;45720;-75
2022/11/18 00:29:30;;;;;;;;;1.00;0.00;;;;;10.99;70.23;99116.59;4997491;28;45723;-75
2022/11/18 00:31:57;;;;;;;;;0.75;0.00;;;;;11.16;70.35;99152.50;5015699;28;46276;-74
2022/11/18 00:34:23;;;;;;;;;0.50;0.00;;;;;11.04;69.93;99142.34;5015568;28;47164;-75
2022/11/18 00:36:48;;;;;;;;;0.25;0.25;;;;;11.19;70.07;99167.06;4997861;28;45553;-75
2022/11/18 00:39:16;;;;;;;;;0.50;0.50;;;;;11.20;70.16;99169.56;5015776;28;45890;-74
2022/11/18 00:45:03;;;;;;;;;0.00;0.00;;;;;11.19;69.89;99169.69;5015416;28;45906;-74
2022/11/18 00:47:31;;;;;;;;;0.75;0.00;;;;;11.17;69.85;99177.72;5015229;28;45815;-75
2022/11/18 00:49:57;;;;;;;;;1.50;1.00;;;;;11.14;70.06;99182.44;4996802;28;45497;-73
2022/11/18 00:52:25;;;;;;;;;0.00;0.00;;;;;11.15;70.06;99192.78;5015191;28;46584;-75
2022/11/18 00:54:59;;;;;;;;;0.75;0.75;;;;;11.13;69.92;99191.25;4997047;28;48059;-75
2022/11/18 00:57:24;;;;;;;;;0.50;0.50;;;;;11.02;70.29;99184.41;5015332;28;45666;-75
2022/11/18 00:59:50;;;;;;;;;0.25;0.00;;;;;11.07;70.23;99186.59;5015303;28;45567;-73
2022/11/18 01:02:15;;;;;;;;;0.75;0.00;;;;;11.06;70.23;99179.72;5014918;28;47129;-75
2022/11/18 01:04:41;;;;;;;;;0.50;0.00;;;;;11.12;70.15;99194.88;5015106;28;46761;-75
2022/11/18 01:07:06;;;;;;;;;1.00;0.00;;;;;11.16;70.31;99207.53;5015350;28;45621;-75
2022/11/18 01:09:31;;;;;;;;;1.00;0.75;;;;;11.10;70.16;99189.78;5014990;28;45708;-75
2022/11/18 01:15:18;;;;;;;;;0.25;0.00;;;;;11.14;70.07;99208.63;5013121;28;45879;-75
2022/11/18 01:17:44;;;;;;;;;0.00;0.00;;;;;11.10;70.20;99199.44;4996777;28;45702;-72
2022/11/18 01:20:09;;;;;;;;;0.00;0.00;;;;;11.04;69.94;99189.53;5014616;28;45853;-75
2022/11/18 01:22:35;;;;;;;;;0.75;0.00;;;;;11.09;69.93;99201.22;4996908;28;47552;-75
2022/11/18 01:25:09;;;;;;;;;0.50;0.00;;;;;10.84;69.93;99173.09;5014837;28;46295;-74
2022/11/18 01:27:35;;;;;;;;;0.00;0.00;;;;;10.89;69.96;99173.47;4996863;28;45679;-75
2022/11/18 01:30:00;;;;;;;;;0.00;0.00;;;;;11.09;70.24;99210.88;5014839;28;45686;-74
2022/11/18 01:32:27;;;;;;;;;0.00;0.00;;;;;11.07;70.23;99212.81;5014492;28;47375;-73
2022/11/18 01:34:55;;;;;;;;;1.00;1.00;;;;;11.06;70.21;99216.41;5014585;28;47956;-76
2022/11/18 01:37:20;;;;;;;;;0.00;0.00;;;;;11.07;70.15;99228.53;5014572;28;45683;-75
2022/11/18 01:39:51;;;;;;;;;0.00;0.00;;;;;11.05;70.06;99212.97;5014414;28;45723;-74
2022/11/18 01:45:43;;;;;;;;;0.50;0.00;;;;;10.65;70.25;99165.31;5014246;28;45890;-76
2022/11/18 01:48:21;;;;;;;;;1.50;0.00;;;;;10.67;70.24;99171.25;4996147;28;45649;-75
2022/11/18 01:50:53;;;;;;;;;0.00;0.00;;;;;10.87;70.24;99209.47;5014720;28;45667;-75
2022/11/18 01:53:23;;;;;;;;;0.00;0.00;;;;;11.04;70.30;99228.84;5015229;28;46652;-76
2022/11/18 01:58:53;;;;;;;;;0.00;0.00;;;;;10.88;70.31;99208.50;4914707;28;45594;-76
2022/11/18 02:01:22;;;;;;;;;0.00;0.00;;;;;11.06;70.27;99240.84;4914730;28;45691;-75
2022/11/18 02:03:49;;;;;;;;;0.00;0.00;;;;;11.00;70.14;99233.56;4914947;28;47604;-75
2022/11/18 02:06:14;;;;;;;;;0.00;0.00;;;;;10.99;70.21;99229.28;4914831;28;45609;-76
2022/11/18 02:08:41;;;;;;;;;0.25;0.00;;;;;11.09;70.20;99253.63;4914633;28;45718;-76
2022/11/18 02:11:49;;;;;;;;;0.00;0.00;;;;;11.04;70.36;99241.94;4914029;28;45626;-76
2022/11/18 02:13:59;;;;;;;;;0.00;0.00;;;;;10.96;70.28;99240.03;4914448;28;45811;-75
2022/11/18 02:16:49;;;;;;;;;0.00;0.00;;;;;10.86;70.52;99226.97;4914522;28;46157;-74
2022/11/18 02:19:33;;;;;;;;;0.00;0.00;;;;;11.08;70.32;99261.63;4914394;28;45694;-74
2022/11/18 02:22:27;;;;;;;;;1.00;0.00;;;;;11.05;70.38;99261.94;4914173;28;45757;-75
2022/11/18 02:25:11;;;;;;;;;0.00;0.00;;;;;11.03;70.30;99259.47;4914228;28;46312;-76
2022/11/18 02:28:14;;;;;;;;;0.25;0.00;;;;;10.99;70.42;99265.97;4914557;28;46319;-75
2022/11/18 02:31:15;;;;;;;;;0.00;0.00;;;;;10.84;70.39;99249.06;4914437;28;45906;-75
2022/11/18 02:34:12;;;;;;;;;0.00;0.00;;;;;10.94;70.51;99265.56;4914668;28;45752;-76
2022/11/18 02:37:26;;;;;;;;;0.00;0.00;;;;;10.40;70.51;99188.56;4961344;28;47917;-75
2022/11/18 02:40:04;;;;;;;;;0.75;0.00;;;;;10.87;70.59;99270.56;4993169;28;46015;-75
2022/11/18 02:45:57;;;;;;;;;0.00;0.00;;;;;10.82;70.90;99280.66;4994002;28;45477;-75
2022/11/18 02:48:27;;;;;;;;;0.00;0.00;;;;;10.78;70.98;99276.66;4993341;28;46919;-75
2022/11/18 02:50:58;;;;;;;;;0.00;0.00;;;;;10.74;70.90;99272.66;4994005;28;45872;-74
2022/11/18 02:53:27;;;;;;;;;2.00;0.00;;;;;10.80;70.92;99289.59;4976214;28;45742;-75
2022/11/18 02:55:54;;;;;;;;;0.00;0.00;;;;;10.79;70.85;99291.41;4994224;28;45737;-74
2022/11/18 03:01:41;;;;;;;;;0.00;0.00;;;;;10.77;71.02;99290.72;4993686;28;45766;-75
2022/11/18 03:04:06;;;;;;;;;0.00;0.00;;;;;10.76;71.11;99290.88;4976105;28;45672;-73
2022/11/18 03:06:48;;;;;;;;;0.00;0.00;;;;;10.73;71.02;99294.59;4994147;28;45558;-74
2022/11/18 03:09:16;;;;;;;;;0.00;0.00;;;;;10.76;70.87;99293.47;4993538;28;45564;-75
2022/11/18 03:11:59;;;;;;;;;0.00;0.00;;;;;10.77;70.83;99308.22;4994283;28;46048;-75
2022/11/18 03:14:46;;;;;;;;;0.00;0.00;;;;;10.75;70.80;99300.50;5000319;28;45577;-75
2022/11/18 03:17:54;;;;;;;;;0.00;0.00;;;;;10.77;70.98;99303.00;5017311;28;45591;-75
2022/11/18 03:20:30;;;;;;;;;0.00;0.00;;;;;10.78;70.81;99310.72;4916885;28;45968;-75
2022/11/18 03:23:27;;;;;;;;;2.00;0.00;;;;;10.59;70.54;99274.09;4916844;28;45986;-74
2022/11/18 03:29:33;;;;;;;;;0.00;0.00;;;;;10.52;70.47;99262.56;4805084;29;45631;-75
2022/11/18 03:32:20;;;;;;;;;0.00;0.00;;;;;10.64;70.78;99292.81;4804971;29;45705;-76
2022/11/18 03:38:13;;;;;;;;;1.00;0.00;;;;;10.35;70.64;99242.31;4750341;29;45949;-75
2022/11/18 03:40:45;;;;;;;;;0.00;0.00;;;;;10.82;70.71;99317.31;4735903;29;45694;-74
2022/11/18 03:43:21;;;;;;;;;0.00;0.00;;;;;10.53;70.70;99282.50;4750434;29;47289;-75
2022/11/18 03:45:51;;;;;;;;;0.00;0.00;;;;;10.73;70.80;99317.34;4750113;29;46360;-75
2022/11/18 03:48:21;;;;;;;;;0.00;0.00;;;;;10.78;70.88;99336.09;4750559;29;45842;-75
2022/11/18 03:50:52;;;;;;;;;0.00;0.00;;;;;10.79;70.76;99343.81;4750431;29;45887;-76
2022/11/18 03:53:19;;;;;;;;;0.25;0.00;;;;;10.80;70.77;99347.22;4750385;29;46772;-77
2022/11/18 03:55:54;;;;;;;;;0.00;0.00;;;;;10.76;70.74;99353.72;4757993;29;46627;-74
2022/11/18 03:58:45;;;;;;;;;0.00;0.00;;;;;10.76;70.76;99357.19;4872782;29;45764;-74
2022/11/18 04:01:20;;;;;;;;;0.00;0.00;;;;;10.74;70.75;99358.31;4878921;29;45886;-76
2022/11/18 04:03:46;;;;;;;;;0.00;0.00;;;;;10.73;71.06;99356.66;4878597;29;47191;-75
2022/11/18 04:06:23;;;;;;;;;0.00;0.00;;;;;10.70;71.09;99362.16;4878904;29;46013;-76
2022/11/18 04:08:55;;;;;;;;;0.00;0.00;;;;;10.69;71.12;99368.38;4878505;29;45817;-75
2022/11/18 04:14:15;;;;;;;;;0.00;0.00;;;;;10.70;71.01;99380.47;4902439;28;46095;-73
2022/11/18 04:16:44;;;;;;;;;0.25;0.00;;;;;10.69;71.02;99390.13;5016286;28;46221;-74
2022/11/18 04:19:10;;;;;;;;;0.00;0.00;;;;;10.68;71.06;99393.75;5015789;28;45546;-74
2022/11/18 04:21:35;;;;;;;;;0.00;0.00;;;;;10.68;71.18;99403.38;5015856;28;45448;-74
2022/11/18 04:24:04;;;;;;;;;0.00;0.00;;;;;10.68;71.18;99396.38;5015825;28;45861;-74
2022/11/18 04:26:56;;;;;;;;;0.00;0.00;;;;;10.70;71.02;99406.69;5015665;28;46915;-76
2022/11/18 04:29:22;;;;;;;;;0.00;0.00;;;;;10.69;71.20;99400.59;5014919;28;45730;-75
2022/11/18 04:31:47;;;;;;;;;0.00;0.00;;;;;10.69;71.17;99400.59;5015760;28;45868;-74
2022/11/18 04:34:12;;;;;;;;;1.25;0.00;;;;;10.70;70.96;99404.06;5015515;28;47354;-74
2022/11/18 04:36:38;;;;;;;;;2.50;0.00;;;;;10.64;71.02;99404.59;5015704;28;46147;-75
2022/11/18 04:39:04;;;;;;;;;0.00;0.00;;;;;10.70;71.11;99417.97;5015780;28;45698;-75
2022/11/18 04:44:12;;;;;;;;;0.00;0.00;;;;;10.65;70.96;99411.50;5015144;28;45584;-74
2022/11/18 04:46:47;;;;;;;;;0.75;0.00;;;;;10.69;71.04;99418.94;5014792;28;47145;-74
2022/11/18 04:49:14;;;;;;;;;1.00;0.00;;;;;10.66;71.08;99427.09;5015284;28;45565;-75
2022/11/18 04:51:41;;;;;;;;;0.00;0.00;;;;;10.62;70.93;99428.34;5015302;28;45708;-74
2022/11/18 04:54:07;;;;;;;;;3.00;0.00;;;;;10.51;71.25;99413.59;5015537;28;45596;-74
2022/11/18 04:56:32;;;;;;;;;0.75;0.00;;;;;10.48;71.32;99415.66;5015154;28;45728;-75
2022/11/18 04:58:59;;;;;;;;;0.00;0.00;;;;;10.55;71.22;99426.41;5015402;28;45521;-75
2022/11/18 05:01:25;;;;;;;;;0.25;0.00;;;;;10.43;71.06;99410.00;5015057;28;45420;-74
2022/11/18 05:03:50;;;;;;;;;1.00;0.00;;;;;10.55;71.11;99435.09;5014952;28;45499;-73
2022/11/18 05:06:16;;;;;;;;;0.00;0.00;;;;;10.55;71.20;99442.13;5014850;28;45991;-75
2022/11/18 05:08:41;;;;;;;;;0.00;0.00;;;;;10.54;71.21;99443.91;5015112;28;45682;-74
2022/11/18 05:13:51;;;;;;;;;0.50;0.00;;;;;10.54;71.18;99443.91;5014959;28;45821;-74
2022/11/18 05:16:16;;;;;;;;;1.00;0.00;;;;;10.53;71.23;99444.88;5014350;28;45565;-74
2022/11/18 05:18:41;;;;;;;;;1.75;0.50;;;;;10.48;71.23;99434.81;5014712;28;45688;-75
2022/11/18 05:21:07;;;;;;;;;2.00;0.00;;;;;10.48;71.23;99439.22;5014834;28;45609;-74
2022/11/18 05:23:32;;;;;;;;;0.00;0.00;;;;;10.45;71.17;99445.56;5015147;28;45775;-75
2022/11/18 05:26:05;;;;;;;;;0.25;0.25;;;;;10.40;71.17;99449.56;4996732;28;48026;-75
2022/11/18 05:28:30;;;;;;;;;0.00;0.00;;;;;10.34;71.03;99447.47;5014533;28;45738;-75
2022/11/18 05:30:56;;;;;;;;;1.00;1.00;;;;;10.35;71.27;99457.81;5014694;28;45852;-75
2022/11/18 05:33:21;;;;;;;;;1.50;0.50;;;;;10.33;71.37;99458.91;5014857;28;46419;-75
2022/11/18 05:35:46;;;;;;;;;1.00;0.25;;;;;10.30;71.37;99467.03;5014125;28;46197;-74
2022/11/18 05:38:12;;;;;;;;;0.75;0.00;;;;;10.24;71.42;99463.19;5014787;28;45564;-75
2022/11/18 05:40:37;;;;;;;;;0.00;0.00;;;;;10.25;71.35;99469.25;4996854;28;45591;-74
2022/11/18 05:43:12;;;;;;;;;1.00;0.00;;;;;10.16;71.44;99463.00;5014385;28;46490;-74
2022/11/18 05:48:59;;;;;;;;;1.00;0.00;;;;;10.21;71.62;99479.13;5014133;28;45538;-75
2022/11/18 05:51:24;;;;;;;;;0.00;0.00;;;;;10.21;71.41;99479.13;5014509;28;45715;-75
2022/11/18 05:53:51;;;;;;;;;1.75;0.00;;;;;10.23;71.50;99474.59;5014281;28;46455;-73
2022/11/18 05:56:34;;;;;;;;;0.00;0.00;;;;;10.23;71.53;99481.63;5014058;28;46031;-74
2022/11/18 05:59:00;;;;;;;;;0.25;0.00;;;;;10.22;71.48;99486.03;5014359;28;45666;-75
2022/11/18 06:01:41;;;;;;;;;1.00;1.00;;;;;10.22;71.55;99498.28;5014183;28;45688;-73
2022/11/18 06:04:12;;;;;;;;;1.50;0.00;;;;;10.19;71.30;99488.09;5014373;28;45612;-75
2022/11/18 06:06:38;;;;;;;;;1.50;1.00;;;;;10.17;71.62;99490.84;5014518;28;46241;-75
2022/11/18 06:09:07;;;;;;;;;1.50;0.00;;;;;10.15;71.59;99494.53;5014158;28;45656;-74
2022/11/18 06:11:39;;;;;;;;;0.50;0.50;;;;;10.13;71.27;99494.66;5014309;28;45685;-75
2022/11/18 06:14:19;;;;;;;;;0.00;0.00;;;;;10.11;71.34;99510.50;5013959;28;46561;-74
2022/11/18 06:16:50;;;;;;;;;0.00;0.00;;;;;10.10;71.43;99506.22;5014284;28;45976;-74
2022/11/18 06:19:16;;;;;;;;;0.75;0.75;;;;;10.08;71.56;99517.78;5013968;28;45712;-75
2022/11/18 06:21:42;;;;;;;;;2.25;0.75;;;;;10.13;71.50;99526.06;5013865;28;45757;-74
2022/11/18 06:24:08;;;;;;;;;2.00;1.00;;;;;10.10;71.44;99527.16;5014137;28;45521;-75
2022/11/18 06:26:35;;;;;;;;;1.00;1.00;;;;;10.10;71.36;99534.16;5013493;28;46588;-74
2022/11/18 06:29:02;;;;;;;;;0.00;0.00;;;;;10.08;71.26;99539.56;5013692;28;45581;-74
2022/11/18 06:31:27;;;;;;;;;1.00;0.00;;;;;10.09;71.25;99541.19;5013796;28;45568;-74
2022/11/18 06:33:53;;;;;;;;;1.25;0.50;;;;;10.09;71.32;99546.41;5013996;28;45633;-74
2022/11/18 06:36:18;;;;;;;;;1.00;1.00;;;;;10.02;71.35;99531.41;5014165;28;45913;-75
2022/11/18 06:38:43;;;;;;;;;2.00;1.00;;;;;10.09;71.33;99551.66;5013763;28;45616;-75
2022/11/18 06:41:09;;;;;;;;;2.00;1.00;;;;;10.10;71.34;99545.47;5013628;28;45568;-74
2022/11/18 06:43:37;;;;;;;;;1.00;1.00;;;;;10.10;71.35;99555.09;5013780;28;45707;-73
2022/11/18 06:49:26;;;;;;;;;1.50;1.00;;;;;10.08;71.16;99565.72;5017098;28;45671;-74
2022/11/18 06:51:52;;;;;;;;;1.50;1.00;;;;;10.07;71.45;99563.22;5017232;28;45498;-74
2022/11/18 06:54:18;;;;;;;;;1.00;1.00;;;;;10.05;71.30;99560.72;5017190;28;46362;-79
2022/11/18 06:56:43;;;;;;;;;0.25;0.00;;;;;10.08;71.56;99576.19;5016753;28;46374;-73
2022/11/18 06:59:08;;;;;;;;;1.50;0.00;;;;;10.08;71.56;99570.13;5017197;28;45669;-75
2022/11/18 07:04:55;;;;;;;;;0.50;0.00;;;;;10.07;71.60;99577.13;5016791;28;45722;-74
2022/11/18 07:07:21;;;;;;;;;2.25;1.00;;;;;10.11;71.49;99586.38;5016656;28;46871;-77
2022/11/18 07:09:46;;;;;;;;;2.00;1.00;;;;;10.12;70.99;99592.44;5016957;28;45734;-76
2022/11/18 07:12:11;;;;;;;;;1.00;1.00;;;;;10.10;71.07;99604.81;5017198;28;45707;-76
2022/11/18 07:21:26;;;;;;;;;1.75;1.00;;;;;10.06;71.10;99619.13;5016542;28;45888;-75
2022/11/18 07:23:52;;;;;;;;;1.00;1.00;;;;;10.00;71.11;99623.09;5016742;28;45586;-76
2022/11/18 07:26:17;;;;;;;;;2.00;1.00;;;;;10.02;71.29;99625.59;5017067;28;46802;-76
2022/11/18 07:28:43;;;;;;;;;3.75;2.00;;;;;10.00;71.16;99625.72;5016519;28;47020;-76
2022/11/18 07:31:11;;;;;;;;;1.00;1.00;;;;;9.97;71.07;99620.75;5016505;28;45619;-76
2022/11/18 07:33:52;;;;;;;;;1.00;1.00;;;;;9.97;71.08;99627.78;5016721;28;45895;-75
2022/11/18 07:36:38;;;;;;;;;2.00;1.00;;;;;9.93;71.40;99623.75;4998787;28;47098;-75
2022/11/18 07:39:09;;;;;;;;;2.75;2.25;;;;;9.98;71.13;99635.50;5016864;28;46008;-77
2022/11/18 07:41:35;;;;;;;;;2.75;1.00;;;;;9.95;71.20;99638.34;5017124;28;45665;-76
2022/11/18 07:44:02;;;;;;;;;1.00;1.00;;;;;9.96;71.07;99636.56;5016951;28;45790;-75
2022/11/18 07:46:30;;;;;;;;;2.00;1.00;;;;;9.97;71.31;99641.69;5017384;28;46407;-77
2022/11/18 07:48:58;;;;;;;;;1.50;1.00;;;;;9.95;71.32;99637.53;5018640;28;46120;-75
2022/11/18 07:51:29;;;;;;;;;2.00;2.00;;;;;9.95;71.32;99640.13;5018505;28;45592;-76
2022/11/18 07:53:55;;;;;;;;;1.00;1.00;;;;;9.91;71.36;99629.13;5018273;28;45472;-76
2022/11/18 07:56:21;;;;;;;;;3.00;2.00;;;;;9.90;71.32;99639.69;4999098;28;47376;-76
2022/11/18 07:58:50;;;;;;;;;3.75;2.00;;;;;9.90;71.50;99640.53;5015589;28;46179;-75
2022/11/18 08:01:18;;;;;;;;;1.00;0.00;;;;;9.93;71.30;99655.16;5016214;28;45592;-75
2022/11/18 08:03:45;;;;;;;;;2.00;1.00;;;;;9.97;71.60;99665.22;5016812;28;45553;-77
2022/11/18 08:06:13;;;;;;;;;4.00;2.25;;;;;9.96;71.35;99665.34;5015930;28;47678;-75
2022/11/18 08:08:38;;;;;;;;;1.75;1.00;;;;;9.97;71.50;99667.00;5016224;28;45651;-77
2022/11/18 08:11:06;;;;;;;;;2.75;1.75;;;;;9.87;71.58;99651.25;5016322;28;45584;-76
2022/11/18 08:13:33;;;;;;;;;1.00;1.00;;;;;9.98;71.70;99671.28;5016389;28;45735;-75
2022/11/18 08:15:59;;;;;;;;;1.00;1.00;;;;;10.00;71.69;99679.81;5015648;28;47480;-76
2022/11/18 08:18:27;;;;;;;;;2.25;1.00;;;;;10.01;71.55;99684.94;5016111;28;46038;-77
2022/11/18 08:20:52;;;;;;;;;2.00;1.00;;;;;9.97;71.65;99682.72;5015672;28;45701;-75
2022/11/18 08:23:18;;;;;;;;;1.00;1.00;;;;;9.96;71.78;99683.66;5016051;28;45597;-76
2022/11/18 08:25:44;;;;;;;;;0.50;0.00;;;;;9.91;71.52;99673.59;5015825;28;46672;-76
2022/11/18 08:28:28;;;;;;;;;;;;;;;;;;;;;
2022/11/18 08:37:55;;;;;;;;;1.75;1.00;;;;;9.88;72.09;99692.13;4859022;29;45918;-75
2022/11/18 08:40:21;;;;;;;;;1.00;1.00;;;;;9.86;72.22;99690.63;4859022;29;47440;-75
2022/11/18 08:42:46;;;;;;;;;1.00;1.00;;;;;9.86;72.41;99690.63;4859115;29;45920;-75
2022/11/18 08:45:12;;;;;;;;;1.00;1.00;;;;;9.85;72.54;99687.19;4859596;29;45637;-75
2022/11/18 08:50:59;;;;;;;;;0.75;0.25;;;;;9.95;72.21;99690.69;4859613;28;46078;-76
2022/11/18 08:53:24;;;;;;;;;0.00;0.00;;;;;9.94;72.30;99686.41;4859599;29;45752;-75
2022/11/18 08:56:00;;;;;;;;;1.50;1.00;;;;;10.03;72.43;99697.91;4859283;29;45618;-75
2022/11/18 08:58:26;;;;;;;;;2.75;1.00;;;;;10.09;72.38;99697.41;4858932;29;47277;-76
2022/11/18 09:04:59;;;;;;;;;2.00;0.00;;;;;10.21;72.21;99700.78;4859179;29;45732;-75
2022/11/18 09:07:25;;;;;;;;;1.00;0.50;;;;;10.25;72.10;99696.97;4859698;29;45527;-73
2022/11/18 09:09:51;;;;;;;;;1.00;1.00;;;;;10.29;72.19;99706.22;4858370;28;45746;-75
2022/11/18 09:12:16;;;;;;;;;1.00;0.00;;;;;10.33;71.99;99718.91;4915808;28;45669;-74
2022/11/18 09:14:43;;;;;;;;;1.00;0.75;;;;;10.35;71.75;99706.53;4962732;28;45764;-75
2022/11/18 09:20:30;;;;;;;;;2.25;1.00;;;;;10.48;71.68;99708.94;5014923;28;46147;-76
2022/11/18 09:22:55;;;;;;;;;1.00;0.00;;;;;10.36;71.57;99689.88;5014902;28;46257;-75
2022/11/18 09:25:20;;;;;;;;;0.00;0.00;;;;;10.49;71.58;99705.34;5015004;28;45548;-76
2022/11/18 09:27:46;;;;;;;;;0.00;0.00;;;;;10.57;71.80;99708.16;5014731;28;45790;-76
2022/11/18 09:30:12;;;;;;;;;1.00;1.00;;;;;10.63;71.68;99719.91;5014718;28;46472;-75
2022/11/18 09:35:59;;;;;;;;;0.75;0.00;;;;;10.66;71.33;99723.06;5014789;28;45679;-75
2022/11/18 09:38:24;;;;;;;;;1.00;1.00;;;;;10.71;71.34;99726.13;5014877;28;45774;-76
2022/11/18 09:41:08;;;;;;;;;1.00;0.00;;;;;10.75;71.41;99724.06;5014360;28;47512;-74
2022/11/18 09:44:18;;;;;;;;;0.00;0.00;;;;;10.81;71.33;99736.66;5014346;28;47009;-76
2022/11/18 09:47:07;;;;;;;;;0.00;0.00;;;;;10.86;71.26;99716.94;4998775;28;45678;-78
2022/11/18 09:49:41;;;;;;;;;2.00;1.25;;;;;10.90;71.28;99730.63;5014702;28;45765;-74
2022/11/18 09:52:18;;;;;;;;;1.00;0.75;;;;;10.96;71.02;99729.28;5014319;28;47740;-75
2022/11/18 09:54:44;;;;;;;;;1.25;1.00;;;;;10.92;70.98;99728.69;5012772;28;46755;-77
2022/11/18 09:57:18;;;;;;;;;3.00;0.50;;;;;11.03;70.79;99730.38;5014640;28;45640;-75
2022/11/18 09:59:44;;;;;;;;;1.25;0.50;;;;;11.09;70.42;99738.53;5014721;28;45560;-75
2022/11/18 10:02:12;;;;;;;;;1.00;1.00;;;;;11.17;70.97;99743.97;5013851;28;47679;-75
2022/11/18 10:04:38;;;;;;;;;1.00;1.00;;;;;11.19;70.60;99744.63;5014200;28;47223;-75
2022/11/18 10:07:22;;;;;;;;;1.50;0.50;;;;;11.25;70.35;99740.66;5014320;28;45581;-77
2022/11/18 10:13:55;;;;;;;;;2.00;1.00;;;;;11.34;70.12;99759.03;4933325;28;46373;-76
2022/11/18 10:16:50;;;;;;;;;1.00;1.00;;;;;11.40;70.01;99752.41;4933362;28;45814;-76
2022/11/18 10:19:38;;;;;;;;;0.50;0.50;;;;;11.43;69.93;99756.56;4933765;28;45649;-76
2022/11/18 10:22:03;;;;;;;;;1.00;1.00;;;;;11.47;70.07;99753.53;4933940;28;45590;-74
2022/11/18 10:24:54;;;;;;;;;1.00;1.00;;;;;11.52;69.79;99753.97;4934228;28;46467;-77
2022/11/18 10:27:20;;;;;;;;;0.50;0.00;;;;;11.53;69.73;99746.91;4933643;28;46315;-75
2022/11/18 10:29:56;;;;;;;;;0.75;0.75;;;;;11.58;69.52;99750.78;4933562;28;45823;-76
2022/11/18 10:32:21;;;;;;;;;1.00;1.00;;;;;11.70;69.41;99759.38;4933056;28;45674;-75
2022/11/18 10:34:55;;;;;;;;;3.00;1.00;;;;;11.73;69.22;99753.88;4933327;28;46420;-75
2022/11/18 10:37:25;;;;;;;;;0.75;0.00;;;;;11.82;69.06;99760.94;4933407;28;46099;-76
2022/11/18 10:40:03;;;;;;;;;1.50;0.50;;;;;11.89;68.81;99762.03;4934996;28;45566;-76
2022/11/18 10:42:34;;;;;;;;;2.00;1.00;;;;;11.96;69.00;99771.00;4952807;28;45672;-74
2022/11/18 10:45:21;;;;;;;;;1.75;1.00;;;;;12.04;68.75;99768.50;4952703;28;46960;-74
2022/11/18 10:48:18;;;;;;;;;2.00;0.00;;;;;12.11;68.29;99755.66;4936409;28;47202;-75
2022/11/18 10:50:46;;;;;;;;;0.75;0.00;;;;;12.13;68.27;99753.72;4898957;28;45774;-75
2022/11/18 10:53:32;;;;;;;;;1.00;0.00;;;;;12.26;67.81;99763.91;4914320;28;45791;-74
2022/11/18 10:56:07;;;;;;;;;0.00;0.00;;;;;12.33;68.09;99762.41;4914136;28;46463;-76
2022/11/18 10:58:41;;;;;;;;;2.25;1.50;;;;;12.36;67.58;99754.25;4913931;28;46360;-76
2022/11/18 11:01:20;;;;;;;;;1.75;0.00;;;;;12.51;67.55;99771.22;4914100;28;45620;-76
2022/11/18 11:04:15;;;;;;;;;1.50;0.00;;;;;12.44;66.98;99747.31;4898401;28;46020;-76
2022/11/18 11:06:40;;;;;;;;;1.25;0.50;;;;;12.59;66.89;99766.91;4914179;28;45643;-74
2022/11/18 11:09:11;;;;;;;;;1.00;0.00;;;;;12.59;66.37;99763.44;4913871;28;46158;-76
2022/11/18 11:11:53;;;;;;;;;0.00;0.00;;;;;12.61;66.58;99767.59;4913805;28;45632;-75
2022/11/18 11:14:31;;;;;;;;;2.50;2.00;;;;;12.68;66.80;99761.78;4913928;28;45727;-75
2022/11/18 11:20:22;;;;;;;;;1.00;0.75;;;;;12.81;65.74;99773.63;4913532;28;46180;-74
2022/11/18 11:22:48;;;;;;;;;0.50;0.00;;;;;12.83;66.12;99766.44;4913935;28;45672;-74
2022/11/18 11:25:22;;;;;;;;;1.00;0.00;;;;;12.86;65.98;99770.56;4914238;28;45641;-75
2022/11/18 11:27:52;;;;;;;;;0.00;0.00;;;;;12.87;65.60;99778.31;4971330;28;45517;-76
2022/11/18 11:30:21;;;;;;;;;0.00;0.00;;;;;12.93;65.77;99769.00;4995245;28;47761;-76
2022/11/18 11:36:50;;;;;;;;;0.00;0.00;;;;;12.99;65.43;99774.53;5016874;28;45780;-76
2022/11/18 11:39:40;;;;;;;;;1.25;1.00;;;;;13.00;65.22;99770.09;4989237;28;46349;-76
2022/11/18 11:42:19;;;;;;;;;1.00;0.00;;;;;13.00;64.90;99770.94;5016154;28;47378;-76
2022/11/18 11:45:04;;;;;;;;;1.00;0.25;;;;;13.05;64.86;99770.50;5016550;28;45567;-75
2022/11/18 11:47:58;;;;;;;;;0.75;0.00;;;;;13.11;64.28;99761.19;5016411;28;45814;-76
2022/11/18 11:50:30;;;;;;;;;1.00;1.00;;;;;13.13;64.35;99757.47;4998406;28;48478;-76
2022/11/18 11:53:16;;;;;;;;;0.50;0.50;;;;;13.15;64.52;99773.09;5016062;28;46028;-75
2022/11/18 11:55:41;;;;;;;;;1.75;1.00;;;;;13.19;64.35;99763.94;5016450;28;45803;-75
2022/11/18 11:58:25;;;;;;;;;0.00;0.00;;;;;13.23;64.04;99762.66;5016494;28;45680;-76
2022/11/18 12:01:04;;;;;;;;;1.00;0.75;;;;;13.23;64.34;99755.59;5016003;28;46599;-76
2022/11/18 12:03:50;;;;;;;;;1.50;1.00;;;;;13.36;63.82;99768.41;5016111;28;45625;-75
2022/11/18 12:06:15;;;;;;;;;2.25;0.00;;;;;13.33;63.84;99759.00;5016348;28;45565;-76
2022/11/18 12:08:53;;;;;;;;;0.75;0.00;;;;;13.35;63.16;99767.59;5016282;28;45576;-76
2022/11/18 12:11:33;;;;;;;;;1.00;1.00;;;;;13.35;63.70;99756.22;5015944;28;46426;-76
2022/11/18 12:13:58;;;;;;;;;0.00;0.00;;;;;13.38;63.40;99769.09;5015944;28;46231;-76
2022/11/18 12:16:23;;;;;;;;;2.00;0.00;;;;;13.39;63.50;99766.31;5015786;28;45581;-75
2022/11/18 12:19:19;;;;;;;;;0.75;0.50;;;;;13.43;63.40;99774.75;5015707;28;45573;-74
2022/11/18 12:21:44;;;;;;;;;0.00;0.00;;;;;13.48;63.19;99771.69;4900090;28;47523;-74
2022/11/18 12:24:24;;;;;;;;;0.75;0.75;;;;;13.47;63.03;99773.47;4916344;28;45746;-75
2022/11/18 12:26:51;;;;;;;;;0.00;0.00;;;;;13.47;62.94;99767.38;4916352;28;45735;-76
2022/11/18 12:29:24;;;;;;;;;0.75;0.00;;;;;13.43;62.82;99764.22;4916323;28;45602;-75
2022/11/18 12:31:56;;;;;;;;;0.75;0.00;;;;;13.42;62.19;99771.28;4915612;28;46812;-74
2022/11/18 12:34:25;;;;;;;;;0.25;0.00;;;;;13.42;62.45;99773.91;4915787;28;47143;-75
2022/11/18 12:36:51;;;;;;;;;1.75;1.00;;;;;13.42;62.48;99776.56;4915835;28;45745;-77
2022/11/18 12:39:23;;;;;;;;;1.00;1.00;;;;;13.45;62.69;99781.50;4916058;28;45741;-76
2022/11/18 12:44:36;;;;;;;;;0.00;0.00;;;;;13.53;62.51;99767.63;4915663;28;45800;-75
2022/11/18 12:47:03;;;;;;;;;1.00;0.00;;;;;13.56;62.55;99777.84;4915770;28;45921;-76
2022/11/18 12:49:29;;;;;;;;;1.50;0.00;;;;;13.58;62.40;99767.16;4915987;28;45833;-77
2022/11/18 12:51:58;;;;;;;;;1.00;0.75;;;;;13.55;62.11;99770.91;4915786;28;46218;-74
2022/11/18 12:54:29;;;;;;;;;0.75;0.00;;;;;13.57;61.82;99768.16;4915667;28;46011;-77
2022/11/18 12:57:00;;;;;;;;;1.50;0.00;;;;;13.53;61.76;99762.34;4916049;28;45709;-75
2022/11/18 12:59:27;;;;;;;;;0.00;0.00;;;;;13.52;62.05;99768.59;5015413;28;45902;-75
2022/11/18 13:05:32;;;;;;;;;0.25;0.00;;;;;13.45;62.00;99765.72;4915619;28;46078;-75
2022/11/18 13:08:15;;;;;;;;;0.50;0.00;;;;;13.49;61.48;99770.69;4915580;28;45512;-76
2022/11/18 13:17:50;;;;;;;;;0.00;0.00;;;;;13.50;61.43;99777.59;4915205;28;45611;-74
2022/11/18 13:25:37;;;;;;;;;1.50;1.00;;;;;13.70;61.64;99776.53;4896019;29;45634;-76
2022/11/18 13:28:16;;;;;;;;;1.25;0.00;;;;;13.74;60.72;99776.06;4896168;29;45695;-76
2022/11/18 13:31:05;;;;;;;;;0.00;0.00;;;;;13.77;60.95;99775.75;4895819;29;45780;-76
2022/11/18 13:33:36;;;;;;;;;0.00;0.00;;;;;13.81;60.52;99771.03;4895913;29;45716;-76
2022/11/18 13:36:02;;;;;;;;;0.00;0.00;;;;;13.89;60.18;99784.25;4896284;29;46288;-75
2022/11/18 13:38:27;;;;;;;;;0.00;0.00;;;;;13.92;59.59;99794.50;4895896;29;47163;-75
2022/11/18 13:41:11;;;;;;;;;0.75;0.75;;;;;13.94;59.90;99775.91;4961067;28;45686;-76
2022/11/18 13:43:36;;;;;;;;;0.50;0.50;;;;;13.95;59.81;99773.13;4994863;28;45800;-75